createdAt,value
2019-06-04T00:02:06.994Z,16.40
2019-06-04T00:04:33.947Z,16.30
2019-06-04T00:07:02.634Z,16.30
2019-06-04T00:09:29.779Z,16.30
2019-06-04T00:11:57.597Z,16.20
2019-06-04T00:14:24.639Z,16.20
2019-06-04T00:16:51.520Z,16.20
2019-06-04T00:19:18.480Z,16.10
2019-06-04T00:21:45.544Z,16.10
2019-06-04T00:24:12.435Z,16.10
2019-06-04T00:26:39.303Z,16.10
2019-06-04T00:29:06.273Z,16.10
2019-06-04T00:31:35.230Z,16.10
2019-06-04T00:34:02.550Z,16.10
2019-06-04T00:36:29.596Z,16.10
2019-06-04T00:38:58.274Z,16.10
2019-06-04T00:41:25.479Z,16.10
2019-06-04T00:43:52.348Z,16.10
2019-06-04T00:46:19.428Z,16.10
2019-06-04T00:48:46.311Z,16.00
2019-06-04T00:51:14.679Z,16.00
2019-06-04T00:53:41.549Z,16.00
2019-06-04T00:56:08.640Z,16.00
2019-06-04T00:58:35.856Z,15.90
2019-06-04T01:01:03.948Z,15.90
2019-06-04T01:03:31.211Z,15.80
2019-06-04T01:06:00.096Z,15.80
2019-06-04T01:08:27.364Z,15.80
2019-06-04T01:10:54.314Z,15.70
2019-06-04T01:13:21.471Z,15.70
2019-06-04T01:15:48.485Z,15.60
2019-06-04T01:18:15.364Z,15.70
2019-06-04T01:20:46.684Z,15.60
2019-06-04T01:23:15.067Z,15.70
2019-06-04T01:25:42.252Z,15.70
2019-06-04T01:28:09.919Z,15.80
2019-06-04T01:30:37.112Z,15.80
2019-06-04T01:33:04.124Z,15.80
2019-06-04T01:35:31.256Z,15.80
2019-06-04T01:37:58.184Z,15.80
2019-06-04T01:40:25.164Z,15.80
2019-06-04T01:42:52.488Z,15.80
2019-06-04T01:45:19.456Z,15.70
2019-06-04T01:47:46.338Z,15.70
2019-06-04T01:50:13.305Z,15.70
2019-06-04T01:52:40.192Z,15.60
2019-06-04T01:55:08.547Z,15.70
2019-06-04T01:57:35.657Z,15.70
2019-06-04T02:00:09.189Z,15.50
2019-06-04T02:02:33.928Z,15.50
2019-06-04T02:05:01.272Z,15.50
2019-06-04T02:07:28.306Z,15.40
2019-06-04T02:09:55.573Z,15.40
2019-06-04T02:12:22.452Z,15.40
2019-06-04T02:14:49.321Z,15.30
2019-06-04T02:17:16.217Z,15.30
2019-06-04T02:19:43.104Z,15.30
2019-06-04T02:22:10.235Z,15.30
2019-06-04T02:24:37.245Z,15.30
2019-06-04T02:27:04.304Z,15.20
2019-06-04T02:29:31.193Z,15.10
2019-06-04T02:31:58.267Z,15.10
2019-06-04T02:34:25.336Z,15.10
2019-06-04T02:36:52.513Z,15.10
2019-06-04T02:39:19.792Z,15.10
2019-06-04T02:41:46.964Z,15.10
2019-06-04T02:44:15.710Z,15.00
2019-06-04T02:46:44.615Z,15.00
2019-06-04T02:49:13.457Z,14.90
2019-06-04T02:51:42.080Z,14.90
2019-06-04T02:54:11.660Z,14.80
2019-06-04T02:56:40.616Z,14.80
2019-06-04T02:59:10.000Z,14.80
2019-06-04T03:01:37.095Z,14.80
2019-06-04T03:04:04.437Z,14.70
2019-06-04T03:06:31.811Z,14.70
2019-06-04T03:08:58.809Z,14.60
2019-06-04T03:11:25.765Z,14.60
2019-06-04T03:13:52.874Z,14.60
2019-06-04T03:16:20.217Z,14.50
2019-06-04T03:18:47.427Z,14.50
2019-06-04T03:21:15.664Z,14.50
2019-06-04T03:23:43.425Z,14.40
2019-06-04T03:26:11.390Z,14.40
2019-06-04T03:28:38.483Z,14.30
2019-06-04T03:31:05.448Z,14.30
2019-06-04T03:33:54.985Z,14.30
2019-06-04T03:36:01.112Z,14.30
2019-06-04T03:38:28.189Z,14.30
2019-06-04T03:40:55.052Z,14.30
2019-06-04T03:43:21.926Z,14.30
2019-06-04T03:45:48.818Z,14.30
2019-06-04T03:48:16.082Z,14.20
2019-06-04T03:50:43.151Z,14.20
2019-06-04T03:53:10.165Z,14.30
2019-06-04T03:55:37.021Z,14.20
2019-06-04T03:58:04.007Z,14.30
2019-06-04T04:00:31.501Z,14.30
2019-06-04T04:02:58.722Z,14.30
2019-06-04T04:05:25.965Z,14.30
2019-06-04T04:07:53.052Z,14.30
2019-06-04T04:10:20.605Z,14.30
2019-06-04T04:12:47.601Z,14.40
2019-06-04T04:15:14.849Z,14.40
2019-06-04T04:17:41.757Z,14.40
2019-06-04T04:20:08.912Z,14.30
2019-06-04T04:22:35.904Z,14.40
2019-06-04T04:25:03.242Z,14.40
2019-06-04T04:27:30.110Z,14.40
2019-06-04T04:29:57.194Z,14.50
2019-06-04T04:32:24.967Z,14.50
2019-06-04T04:34:52.392Z,14.60
2019-06-04T04:37:19.774Z,14.70
2019-06-04T04:39:46.929Z,14.70
2019-06-04T04:42:14.003Z,14.80
2019-06-04T04:44:41.204Z,14.90
2019-06-04T04:47:08.091Z,14.90
2019-06-04T04:49:35.424Z,15.00
2019-06-04T04:52:02.384Z,15.00
2019-06-04T04:54:30.035Z,15.10
2019-06-04T04:56:57.184Z,15.20
2019-06-04T04:59:27.907Z,15.20
2019-06-04T05:01:55.493Z,15.30
2019-06-04T05:04:23.677Z,15.50
2019-06-04T05:06:53.446Z,15.50
2019-06-04T05:09:21.978Z,15.70
2019-06-04T05:11:51.008Z,15.80
2019-06-04T05:14:18.698Z,15.90
2019-06-04T05:16:45.677Z,16.00
2019-06-04T05:19:15.023Z,16.10
2019-06-04T05:21:44.302Z,16.10
2019-06-04T05:24:11.387Z,16.30
2019-06-04T05:26:38.253Z,16.40
2019-06-04T05:29:05.132Z,16.50
2019-06-04T05:31:32.142Z,16.60
2019-06-04T05:33:59.089Z,16.70
2019-06-04T05:36:27.643Z,16.80
2019-06-04T05:38:54.879Z,16.90
2019-06-04T05:41:22.158Z,17.00
2019-06-04T05:43:49.303Z,17.10
2019-06-04T05:46:16.173Z,17.20
2019-06-04T05:48:43.134Z,17.30
2019-06-04T05:51:10.012Z,17.40
2019-06-04T05:53:36.964Z,17.50
2019-06-04T05:56:03.929Z,17.60
2019-06-04T05:58:31.046Z,17.70
2019-06-04T06:00:58.260Z,17.80
2019-06-04T06:03:25.216Z,17.90
2019-06-04T06:05:52.104Z,18.00
2019-06-04T06:08:19.060Z,18.10
2019-06-04T06:10:46.129Z,18.20
2019-06-04T06:13:13.105Z,18.30
2019-06-04T06:15:40.176Z,18.40
2019-06-04T06:18:07.036Z,18.40
2019-06-04T06:20:34.005Z,18.50
2019-06-04T06:23:10.592Z,18.60
2019-06-04T06:25:33.191Z,18.70
2019-06-04T06:27:58.577Z,18.80
2019-06-04T06:30:26.836Z,18.90
2019-06-04T06:32:54.015Z,19.00
2019-06-04T06:35:21.084Z,19.10
2019-06-04T06:37:47.959Z,19.20
2019-06-04T06:40:16.420Z,19.30
2019-06-04T06:42:43.600Z,19.30
2019-06-04T06:45:10.814Z,19.40
2019-06-04T06:47:37.700Z,19.50
2019-06-04T06:50:05.425Z,19.60
2019-06-04T06:52:33.264Z,19.70
2019-06-04T06:55:00.365Z,19.80
2019-06-04T06:57:27.957Z,19.90
2019-06-04T06:59:55.134Z,19.90
2019-06-04T07:02:24.749Z,20.00
2019-06-04T07:04:51.953Z,20.10
2019-06-04T07:07:19.223Z,20.20
2019-06-04T07:09:47.217Z,20.40
2019-06-04T07:12:16.188Z,20.40
2019-06-04T07:14:45.996Z,20.60
2019-06-04T07:17:14.770Z,20.70
2019-06-04T07:19:41.328Z,20.70
2019-06-04T07:22:08.193Z,20.80
2019-06-04T07:24:35.718Z,20.90
2019-06-04T07:27:02.932Z,21.00
2019-06-04T07:29:30.318Z,21.10
2019-06-04T07:31:57.480Z,21.20
2019-06-04T07:34:24.460Z,21.30
2019-06-04T07:36:51.337Z,21.40
2019-06-04T07:39:18.305Z,21.50
2019-06-04T07:41:45.316Z,21.50
2019-06-04T07:44:12.355Z,21.60
2019-06-04T07:46:39.699Z,21.70
2019-06-04T07:49:06.797Z,21.70
2019-06-04T07:51:33.941Z,21.80
2019-06-04T07:54:01.066Z,21.80
2019-06-04T07:56:28.304Z,21.90
2019-06-04T07:58:55.271Z,22.00
2019-06-04T08:01:24.236Z,22.20
2019-06-04T08:03:51.228Z,22.30
2019-06-04T08:06:18.188Z,22.40
2019-06-04T08:08:45.277Z,22.60
2019-06-04T08:11:12.477Z,22.70
2019-06-04T08:13:40.149Z,22.80
2019-06-04T08:16:08.388Z,22.90
2019-06-04T08:18:35.517Z,22.90
2019-06-04T08:21:02.552Z,23.00
2019-06-04T08:23:29.476Z,23.00
2019-06-04T08:25:56.781Z,23.20
2019-06-04T08:28:23.660Z,23.30
2019-06-04T08:30:50.708Z,23.40
2019-06-04T08:33:17.800Z,23.50
2019-06-04T08:35:46.208Z,23.60
2019-06-04T08:38:13.688Z,23.70
2019-06-04T08:40:41.641Z,23.90
2019-06-04T08:43:08.745Z,23.90
2019-06-04T08:45:37.404Z,24.00
2019-06-04T08:48:04.740Z,24.10
2019-06-04T08:50:31.805Z,24.30
2019-06-04T08:52:58.688Z,24.30
2019-06-04T08:55:34.017Z,24.20
2019-06-04T08:58:02.821Z,24.40
2019-06-04T09:00:29.892Z,24.70
2019-06-04T09:02:57.220Z,25.10
2019-06-04T09:05:24.566Z,25.70
2019-06-04T09:07:52.142Z,26.50
2019-06-04T09:10:28.368Z,27.60
2019-06-04T09:12:55.225Z,28.70
2019-06-04T09:15:22.297Z,29.90
2019-06-04T09:17:52.492Z,30.90
2019-06-04T09:20:18.143Z,31.60
2019-06-04T09:22:45.618Z,32.20
2019-06-04T09:25:12.714Z,32.60
2019-06-04T09:27:40.559Z,32.70
2019-06-04T09:30:07.773Z,32.10
2019-06-04T09:32:34.725Z,31.10
2019-06-04T09:35:02.108Z,30.00
2019-06-04T09:37:46.079Z,29.00
2019-06-04T09:39:58.040Z,28.20
2019-06-04T09:42:24.914Z,27.60
2019-06-04T09:44:51.885Z,27.20
2019-06-04T09:47:18.740Z,27.00
2019-06-04T09:49:49.596Z,26.90
2019-06-04T09:52:14.775Z,26.70
2019-06-04T09:54:43.253Z,26.60
2019-06-04T09:57:10.629Z,26.60
2019-06-04T09:59:37.503Z,26.50
2019-06-04T10:02:04.565Z,26.40
2019-06-04T10:04:31.627Z,26.50
2019-06-04T10:06:58.596Z,26.60
2019-06-04T10:09:25.869Z,26.80
2019-06-04T10:11:52.832Z,26.90
2019-06-04T10:14:19.791Z,27.20
2019-06-04T10:16:47.047Z,27.30
2019-06-04T10:19:14.269Z,27.20
2019-06-04T10:21:41.136Z,27.20
2019-06-04T10:24:08.013Z,27.00
2019-06-04T10:26:34.885Z,26.90
2019-06-04T10:29:08.432Z,26.80
2019-06-04T10:31:30.717Z,26.80
2019-06-04T10:33:57.672Z,26.80
2019-06-04T10:36:24.652Z,26.80
2019-06-04T10:38:52.769Z,26.70
2019-06-04T10:41:20.106Z,26.70
2019-06-04T10:43:47.682Z,26.70
2019-06-04T10:46:14.557Z,26.80
2019-06-04T10:48:41.433Z,26.80
2019-06-04T10:51:08.719Z,26.90
2019-06-04T10:53:35.692Z,27.00
2019-06-04T10:56:03.912Z,27.10
2019-06-04T10:58:30.890Z,27.10
2019-06-04T11:00:59.333Z,27.20
2019-06-04T11:03:26.942Z,27.20
2019-06-04T11:05:54.498Z,27.20
2019-06-04T11:08:22.307Z,27.20
2019-06-04T11:10:49.882Z,27.30
2019-06-04T11:13:17.543Z,27.30
2019-06-04T11:15:44.607Z,27.40
2019-06-04T11:18:11.727Z,27.50
2019-06-04T11:20:39.283Z,27.50
2019-06-04T11:23:06.576Z,27.70
2019-06-04T11:25:33.815Z,27.70
2019-06-04T11:28:00.868Z,27.70
2019-06-04T11:30:27.840Z,27.90
2019-06-04T11:32:55.845Z,28.00
2019-06-04T11:35:23.258Z,28.10
2019-06-04T11:37:50.435Z,28.10
2019-06-04T11:40:17.704Z,28.10
2019-06-04T11:42:44.577Z,28.10
2019-06-04T11:45:24.051Z,28.20
2019-06-04T11:47:41.651Z,28.30
2019-06-04T11:50:09.184Z,28.30
2019-06-04T11:52:37.192Z,28.40
2019-06-04T11:55:04.999Z,28.50
2019-06-04T11:57:33.177Z,28.60
2019-06-04T12:00:02.179Z,28.80
2019-06-04T12:02:29.637Z,28.90
2019-06-04T12:05:01.922Z,29.00
2019-06-04T12:07:25.389Z,28.90
2019-06-04T12:09:52.920Z,28.90
2019-06-04T12:12:42.835Z,29.00
2019-06-04T12:14:48.999Z,29.10
2019-06-04T12:17:16.004Z,29.20
2019-06-04T12:19:43.073Z,29.30
2019-06-04T12:22:10.043Z,29.50
2019-06-04T12:24:37.042Z,29.40
2019-06-04T12:27:04.799Z,29.60
2019-06-04T12:29:33.254Z,29.70
2019-06-04T12:32:00.620Z,29.80
2019-06-04T12:34:27.541Z,30.10
2019-06-04T12:36:54.688Z,30.20
2019-06-04T12:39:21.793Z,30.50
2019-06-04T12:41:48.760Z,30.60
2019-06-04T12:44:15.844Z,31.00
2019-06-04T12:46:42.932Z,31.50
2019-06-04T12:49:10.041Z,31.90
2019-06-04T12:51:37.621Z,32.30
2019-06-04T12:54:06.050Z,32.80
2019-06-04T12:56:33.173Z,33.70
2019-06-04T12:59:02.004Z,34.70
2019-06-04T13:01:31.168Z,35.90
2019-06-04T13:04:00.343Z,37.60
2019-06-04T13:06:27.928Z,39.40
2019-06-04T13:08:55.085Z,40.90
2019-06-04T13:11:22.416Z,42.00
2019-06-04T13:13:49.766Z,42.90
2019-06-04T13:16:17.794Z,43.70
2019-06-04T13:18:45.071Z,44.30
2019-06-04T13:21:12.920Z,44.80
2019-06-04T13:23:40.181Z,45.40
2019-06-04T13:26:07.572Z,45.80
2019-06-04T13:28:34.721Z,45.80
2019-06-04T13:31:01.808Z,45.80
2019-06-04T13:33:28.773Z,45.80
2019-06-04T13:35:55.744Z,46.10
2019-06-04T13:38:23.134Z,45.80
2019-06-04T13:40:49.999Z,45.30
2019-06-04T13:43:16.865Z,45.40
2019-06-04T13:45:43.948Z,45.50
2019-06-04T13:48:11.984Z,45.50
2019-06-04T13:50:39.683Z,45.50
2019-06-04T13:53:13.272Z,45.60
2019-06-04T13:55:37.069Z,46.20
2019-06-04T13:58:05.025Z,46.80
2019-06-04T14:00:41.915Z,47.10
2019-06-04T14:03:02.458Z,46.30
2019-06-04T14:05:29.537Z,44.60
2019-06-04T14:07:57.175Z,44.50
2019-06-04T14:10:24.377Z,45.30
2019-06-04T14:12:51.249Z,46.00
2019-06-04T14:15:18.684Z,46.70
2019-06-04T14:17:45.658Z,46.70
2019-06-04T14:20:13.253Z,47.00
2019-06-04T14:22:40.301Z,47.60
2019-06-04T14:25:13.928Z,48.10
2019-06-04T14:27:41.414Z,48.00
2019-06-04T14:30:09.594Z,47.80
2019-06-04T14:32:37.020Z,47.80
2019-06-04T14:35:07.462Z,47.80
2019-06-04T14:37:34.850Z,48.00
2019-06-04T14:40:17.553Z,47.90
2019-06-04T14:42:31.052Z,48.00
2019-06-04T14:44:58.149Z,47.90
2019-06-04T14:47:25.181Z,46.90
2019-06-04T14:49:52.052Z,44.70
2019-06-04T14:52:20.258Z,42.80
2019-06-04T14:54:47.498Z,42.40
2019-06-04T14:57:14.723Z,42.20
2019-06-04T14:59:41.856Z,42.10
2019-06-04T15:02:10.203Z,41.80
2019-06-04T15:04:37.293Z,41.40
2019-06-04T15:07:04.244Z,40.90
2019-06-04T15:09:31.125Z,40.40
2019-06-04T15:11:58.264Z,40.00
2019-06-04T15:14:25.248Z,39.30
2019-06-04T15:16:52.332Z,39.00
2019-06-04T15:19:20.352Z,38.70
2019-06-04T15:21:47.395Z,38.20
2019-06-04T15:24:14.878Z,37.60
2019-06-04T15:26:42.148Z,37.40
2019-06-04T15:29:09.211Z,37.10
2019-06-04T15:31:36.184Z,36.60
2019-06-04T15:34:03.263Z,36.20
2019-06-04T15:36:30.717Z,35.50
2019-06-04T15:38:57.688Z,35.00
2019-06-04T15:41:24.841Z,35.10
2019-06-04T15:43:52.512Z,34.90
2019-06-04T15:46:19.764Z,34.80
2019-06-04T15:48:46.825Z,34.60
2019-06-04T15:51:14.391Z,34.60
2019-06-04T15:53:41.880Z,34.30
2019-06-04T15:56:08.759Z,34.30
2019-06-04T15:58:35.621Z,34.20
2019-06-04T16:01:02.597Z,34.00
2019-06-04T16:03:48.290Z,33.80
2019-06-04T16:05:58.931Z,33.70
2019-06-04T16:08:26.956Z,33.50
2019-06-04T16:10:54.069Z,33.40
2019-06-04T16:13:21.051Z,33.20
2019-06-04T16:15:47.964Z,33.10
2019-06-04T16:18:14.882Z,32.90
2019-06-04T16:20:41.832Z,32.80
2019-06-04T16:23:08.832Z,32.70
2019-06-04T16:25:35.796Z,32.50
2019-06-04T16:28:15.348Z,32.30
2019-06-04T16:30:44.647Z,32.10
2019-06-04T16:33:12.267Z,31.90
2019-06-04T16:35:39.667Z,31.80
2019-06-04T16:38:09.035Z,31.60
2019-06-04T16:40:36.362Z,31.50
2019-06-04T16:43:04.080Z,31.40
2019-06-04T16:45:31.310Z,31.30
2019-06-04T16:47:59.044Z,31.30
2019-06-04T16:50:26.828Z,31.20
2019-06-04T16:52:54.186Z,31.10
2019-06-04T16:55:21.416Z,30.90
2019-06-04T16:57:48.964Z,30.80
2019-06-04T17:00:16.406Z,30.90
2019-06-04T17:02:43.467Z,30.80
2019-06-04T17:05:10.993Z,30.70
2019-06-04T17:07:38.996Z,30.60
2019-06-04T17:10:06.501Z,30.50
2019-06-04T17:12:50.628Z,30.40
2019-06-04T17:15:04.086Z,30.30
2019-06-04T17:17:31.533Z,30.20
2019-06-04T17:19:59.329Z,30.20
2019-06-04T17:22:27.270Z,30.00
2019-06-04T17:24:54.797Z,29.90
2019-06-04T17:27:22.016Z,29.90
2019-06-04T17:29:49.265Z,29.80
2019-06-04T17:32:16.485Z,29.80
2019-06-04T17:34:43.608Z,29.70
2019-06-04T17:37:10.941Z,29.70
2019-06-04T17:39:38.205Z,29.60
2019-06-04T17:42:23.124Z,29.50
2019-06-04T17:44:57.090Z,29.40
2019-06-04T17:47:28.230Z,29.40
2019-06-04T17:50:01.345Z,29.30
2019-06-04T17:52:36.745Z,29.20
2019-06-04T17:55:06.137Z,29.20
2019-06-04T17:57:34.731Z,29.10
2019-06-04T18:00:02.399Z,29.00
2019-06-04T18:02:31.146Z,29.00
2019-06-04T18:04:58.588Z,28.90
2019-06-04T18:07:26.602Z,28.80
2019-06-04T18:09:53.970Z,28.80
2019-06-04T18:12:21.181Z,28.80
2019-06-04T18:14:48.762Z,28.70
2019-06-04T18:17:17.058Z,28.50
2019-06-04T18:19:44.318Z,28.40
2019-06-04T18:22:11.597Z,28.20
2019-06-04T18:24:38.865Z,28.10
2019-06-04T18:27:06.098Z,27.90
2019-06-04T18:29:33.734Z,27.70
2019-06-04T18:32:01.147Z,27.60
2019-06-04T18:34:29.101Z,27.40
2019-06-04T18:36:56.642Z,27.30
2019-06-04T18:39:23.853Z,27.10
2019-06-04T18:41:51.210Z,27.00
2019-06-04T18:44:18.748Z,26.90
2019-06-04T18:46:45.959Z,26.80
2019-06-04T18:49:13.208Z,26.70
2019-06-04T18:51:40.479Z,26.60
2019-06-04T18:54:07.834Z,26.50
2019-06-04T18:56:36.139Z,26.40
2019-06-04T18:59:03.514Z,26.30
2019-06-04T19:01:30.808Z,26.20
2019-06-04T19:03:59.518Z,26.10
2019-06-04T19:06:26.828Z,26.00
2019-06-04T19:08:54.055Z,25.90
2019-06-04T19:11:21.347Z,25.80
2019-06-04T19:14:02.543Z,25.70
2019-06-04T19:16:17.738Z,25.70
2019-06-04T19:18:45.185Z,25.60
2019-06-04T19:21:12.373Z,25.50
2019-06-04T19:23:39.571Z,25.40
2019-06-04T19:26:06.948Z,25.30
2019-06-04T19:28:35.257Z,25.20
2019-06-04T19:31:02.709Z,25.20
2019-06-04T19:33:29.832Z,25.10
2019-06-04T19:35:57.573Z,24.80
2019-06-04T19:38:24.778Z,24.30
2019-06-04T19:40:52.268Z,23.80
2019-06-04T19:43:19.487Z,23.50
2019-06-04T19:45:46.773Z,23.30
2019-06-04T19:48:14.050Z,23.20
2019-06-04T19:50:42.485Z,23.10
2019-06-04T19:53:09.849Z,23.00
2019-06-04T19:55:37.080Z,23.00
2019-06-04T19:58:04.253Z,23.00
2019-06-04T20:00:31.509Z,23.00
2019-06-04T20:02:58.714Z,22.90
2019-06-04T20:05:43.561Z,22.90
2019-06-04T20:07:55.349Z,22.90
2019-06-04T20:10:22.586Z,22.80
2019-06-04T20:12:49.800Z,22.80
2019-06-04T20:15:17.937Z,22.80
2019-06-04T20:17:46.931Z,22.80
2019-06-04T20:20:15.857Z,22.80
2019-06-04T20:22:43.958Z,22.70
2019-06-04T20:25:11.301Z,22.80
2019-06-04T20:27:39.360Z,22.80
2019-06-04T20:30:09.945Z,22.80
2019-06-04T20:32:42.990Z,22.80
2019-06-04T20:35:14.029Z,22.90
2019-06-04T20:37:39.174Z,23.20
2019-06-04T20:40:07.593Z,23.70
2019-06-04T20:45:22.243Z,24.10
2019-06-04T20:47:50.607Z,24.10
2019-06-04T20:50:17.932Z,24.00
2019-06-04T20:52:45.418Z,23.90
2019-06-04T20:55:14.423Z,23.80
2019-06-04T20:57:43.036Z,23.70
2019-06-04T21:00:12.509Z,23.60
2019-06-04T21:02:39.865Z,23.60
2019-06-04T21:05:10.792Z,23.50
2019-06-04T21:07:36.296Z,23.30
2019-06-04T21:10:04.489Z,23.30
2019-06-04T21:12:32.013Z,23.20
2019-06-04T21:14:59.115Z,23.00
2019-06-04T21:17:26.485Z,22.90
2019-06-04T21:19:54.139Z,22.80
2019-06-04T21:22:21.579Z,22.80
2019-06-04T21:24:49.433Z,22.80
2019-06-04T21:27:16.938Z,22.80
2019-06-04T21:29:45.422Z,22.90
2019-06-04T21:32:12.741Z,22.90
2019-06-04T21:34:40.013Z,22.90
2019-06-04T21:37:07.362Z,23.00
2019-06-04T21:39:34.948Z,23.10
2019-06-04T21:42:02.294Z,23.10
2019-06-04T21:44:29.589Z,23.20
2019-06-04T21:47:02.193Z,23.10
2019-06-04T21:49:26.158Z,23.10
2019-06-04T21:51:54.571Z,23.10
2019-06-04T21:54:21.932Z,23.10
2019-06-04T21:56:49.871Z,23.10
2019-06-04T21:59:18.924Z,23.20
2019-06-04T22:01:47.769Z,23.40
2019-06-04T22:04:15.265Z,23.50
2019-06-04T22:06:42.357Z,23.70
2019-06-04T22:09:22.668Z,23.90
2019-06-04T22:11:49.897Z,24.30
2019-06-04T22:14:17.495Z,24.90
2019-06-04T22:16:44.561Z,24.70
2019-06-04T22:19:11.777Z,24.40
2019-06-04T22:21:38.956Z,24.60
2019-06-04T22:24:06.257Z,24.80
2019-06-04T22:26:33.444Z,24.80
2019-06-04T22:29:00.567Z,24.80
2019-06-04T22:31:27.890Z,24.70
2019-06-04T22:33:59.417Z,24.60
2019-06-04T22:36:24.157Z,24.90
2019-06-04T22:38:52.041Z,24.80
2019-06-04T22:41:20.293Z,24.80
2019-06-04T22:43:47.541Z,24.70
2019-06-04T22:46:19.577Z,24.60
2019-06-04T22:48:43.815Z,24.40
2019-06-04T22:51:10.925Z,24.20
2019-06-04T22:53:38.173Z,24.10
2019-06-04T22:56:05.769Z,24.00
2019-06-04T22:58:33.137Z,23.90
2019-06-04T23:01:01.730Z,23.90
2019-06-04T23:03:29.238Z,23.80
2019-06-04T23:05:56.401Z,23.70
2019-06-04T23:08:23.703Z,23.60
2019-06-04T23:10:50.792Z,23.50
2019-06-04T23:13:17.976Z,23.50
2019-06-04T23:15:45.221Z,23.50
2019-06-04T23:18:12.365Z,23.50
2019-06-04T23:20:39.733Z,23.40
2019-06-04T23:23:06.785Z,23.30
2019-06-04T23:25:33.973Z,23.20
2019-06-04T23:28:02.818Z,23.10
2019-06-04T23:30:30.241Z,23.00
2019-06-04T23:32:58.314Z,22.90
2019-06-04T23:35:25.601Z,22.80
2019-06-04T23:37:52.821Z,22.70
2019-06-04T23:40:20.008Z,22.60
2019-06-04T23:42:47.321Z,22.50
2019-06-04T23:45:14.790Z,22.40
2019-06-04T23:47:42.101Z,22.30
2019-06-04T23:50:09.794Z,22.30
2019-06-04T23:52:37.630Z,22.20
2019-06-04T23:55:05.917Z,22.00
2019-06-04T23:57:33.240Z,22.00
